Guayanilla, Puerto Rico
Current Conditions -  °F | °C
As of 3:50 PM on Saturday 27 Dec 2014 (Local Time) from TJPS Reporting Station
Few Clouds Few Clouds  
Wind Chill: 88°   Ceiling: Unl
Heat Index: 89°   Visibility: 10mi
Dew Point: 64°   Wind: 9mph
Humidity: 46%   Direction: 40°NE
Pressure: 29.98"   Gusts: NA
Location:  18.02°N, 66.79°W
Report Text: TJPS 271950Z 04008KT 10SM FEW025 31/18 A2998
Loading
Personal Weather Stations






























Interactive Weather Map New forecast layout! Learn more

10-Day Weather Forecast

Advertisements
Track Severe Weather on mobile